Current Weather

Tahoua

Tahoua, Niger (DRRT)

Report from: Monday, February 6, 2023 7:00 AM WAT
Current time: Monday, February 6, 2023 7:23 AM WAT

Nearby weather
Weather history
Weather forecast

Temperature23.0°C (73.4°F)
Dew point-5.0°C (23.0°F)
Winds 8 kts (4.1 m/s, 9.2 mph) East-Northeast (60°)
Visibility5 mi. (8 km)
Altimeter29.94 in.Hg (1014 mB)
Relative humidity15 %
Density altitude978 ft. (298 m)
Flight conditions Marginal Visual Meteorological Conditions
Raw dataDRRT 060600Z 06008KT 8000 NSC 23/M05 Q1014
An error has occurred. This application may no longer respond until reloaded. Reload 🗙